Time;durP1;ratioP1;P1;durP2;ratioP2;P2;SDS_P1;SDS_P2;PMS_P1;PMS_P2;Temp;Humidity;BMP_temperature;BMP_pressure;BME280_temperature;BME280_humidity;BME280_pressure;Samples;Min_cycle;Max_cycle;Signal;HPM_P1;HPM_P2
2023/12/28 00:00:01;;;;;;;;;;;6.70;99.90;;;;;;5068881;28;20389;-77
2023/12/28 00:02:27;;;;;;;;;;;6.70;99.90;;;;;;5065135;28;19963;-78
2023/12/28 00:04:54;;;;;;;;;;;6.70;99.90;;;;;;5065473;28;19928;-78
2023/12/28 00:07:20;;;;;;;;;;;6.70;99.90;;;;;;5068725;28;19955;-78
2023/12/28 00:09:46;;;;;;;;;;;6.70;99.90;;;;;;5062344;28;19932;-77
2023/12/28 00:12:14;;;;;;;;;;;6.70;99.90;;;;;;5064911;28;20381;-76
2023/12/28 00:14:40;;;;;;;;;;;6.70;99.90;;;;;;5068042;28;19928;-77
2023/12/28 00:17:07;;;;;;;;;;;6.70;99.90;;;;;;5066685;28;19995;-77
2023/12/28 00:19:33;;;;;;;;;;;6.80;99.90;;;;;;5065917;28;19951;-76
2023/12/28 00:22:00;;;;;;;;;;;6.80;99.90;;;;;;5066071;28;20005;-76
2023/12/28 00:24:26;;;;;;;;;;;6.70;99.90;;;;;;5068211;28;19932;-79
2023/12/28 00:26:53;;;;;;;;;;;6.80;99.90;;;;;;5068143;28;19925;-77
2023/12/28 00:29:21;;;;;;;;;;;6.70;99.90;;;;;;5068706;28;19932;-78
2023/12/28 00:31:47;;;;;;;;;;;6.80;99.90;;;;;;5064553;28;20333;-76
2023/12/28 00:34:14;;;;;;;;;;;6.80;99.90;;;;;;5066536;28;19990;-76
2023/12/28 00:36:40;;;;;;;;;;;6.80;99.90;;;;;;5065932;28;20185;-76
2023/12/28 00:39:07;;;;;;;;;;;6.80;99.90;;;;;;5066447;28;19932;-77
2023/12/28 00:41:33;;;;;;;;;;;6.80;99.90;;;;;;5063779;28;19928;-77
2023/12/28 00:44:00;;;;;;;;;;;6.70;99.90;;;;;;5065596;28;19928;-76
2023/12/28 00:46:28;;;;;;;;;;;6.80;99.90;;;;;;5066238;28;20013;-76
2023/12/28 00:48:54;;;;;;;;;;;6.80;99.90;;;;;;5064559;28;19928;-77
2023/12/28 00:51:21;;;;;;;;;;;6.80;99.90;;;;;;5069545;28;19928;-76
2023/12/28 00:53:48;;;;;;;;;;;6.70;99.90;;;;;;5066225;28;20534;-77
2023/12/28 00:56:14;;;;;;;;;;;6.80;99.90;;;;;;5068062;28;19936;-78
2023/12/28 00:58:43;;;;;;;;;;;6.80;99.90;;;;;;5068800;28;20041;-76
2023/12/28 01:01:09;;;;;;;;;;;6.80;99.90;;;;;;5068052;28;19975;-77
2023/12/28 01:03:37;;;;;;;;;;;6.80;99.90;;;;;;5067812;28;20356;-77
2023/12/28 01:06:05;;;;;;;;;;;6.80;99.90;;;;;;5065442;28;19935;-76
2023/12/28 01:08:33;;;;;;;;;;;6.80;99.90;;;;;;5067961;28;19970;-77
2023/12/28 01:11:00;;;;;;;;;;;6.80;99.90;;;;;;5067947;28;19951;-77
2023/12/28 01:13:26;;;;;;;;;;;6.80;99.80;;;;;;5069284;28;19978;-78
2023/12/28 01:15:53;;;;;;;;;;;6.80;99.70;;;;;;5066143;28;19928;-78
2023/12/28 01:18:20;;;;;;;;;;;6.80;99.70;;;;;;5065148;28;20299;-77
2023/12/28 01:20:47;;;;;;;;;;;6.80;99.60;;;;;;5069001;28;19939;-77
2023/12/28 01:23:14;;;;;;;;;;;6.80;99.40;;;;;;5066457;28;20037;-77
2023/12/28 01:25:41;;;;;;;;;;;6.80;99.30;;;;;;5069018;28;19974;-76
2023/12/28 01:28:07;;;;;;;;;;;6.80;99.30;;;;;;5069018;28;19963;-76
2023/12/28 01:30:34;;;;;;;;;;;6.80;99.20;;;;;;5069278;28;19928;-77
2023/12/28 01:33:00;;;;;;;;;;;6.80;98.80;;;;;;5067568;28;20019;-77
2023/12/28 01:35:27;;;;;;;;;;;6.90;98.40;;;;;;5068167;28;19935;-79
2023/12/28 01:37:55;;;;;;;;;;;6.90;98.00;;;;;;5065962;28;19936;-77
2023/12/28 01:40:22;;;;;;;;;;;6.90;97.70;;;;;;5066001;28;19936;-79
2023/12/28 01:42:47;;;;;;;;;;;6.90;97.60;;;;;;5064896;28;19928;-76
2023/12/28 01:45:14;;;;;;;;;;;6.90;97.50;;;;;;5065006;28;19924;-77
2023/12/28 01:47:41;;;;;;;;;;;6.90;97.30;;;;;;5062659;28;19932;-79
2023/12/28 01:50:07;;;;;;;;;;;6.90;97.10;;;;;;5069617;28;19943;-76
2023/12/28 01:52:34;;;;;;;;;;;7.00;97.10;;;;;;5067172;28;19945;-78
2023/12/28 01:55:02;;;;;;;;;;;7.00;97.00;;;;;;5067451;28;20444;-78
2023/12/28 01:57:29;;;;;;;;;;;7.00;97.10;;;;;;5067412;28;19973;-77
2023/12/28 01:59:56;;;;;;;;;;;7.00;97.20;;;;;;5067274;28;19929;-77
2023/12/28 02:02:23;;;;;;;;;;;7.00;97.00;;;;;;5065856;28;19929;-77
2023/12/28 02:04:49;;;;;;;;;;;7.00;96.80;;;;;;5068842;28;19928;-80
2023/12/28 02:07:16;;;;;;;;;;;7.00;96.50;;;;;;5068077;28;20735;-77
2023/12/28 02:09:43;;;;;;;;;;;7.10;96.60;;;;;;5067682;28;20309;-78
2023/12/28 02:12:11;;;;;;;;;;;7.10;96.50;;;;;;5063075;28;19936;-77
2023/12/28 02:14:37;;;;;;;;;;;7.10;96.50;;;;;;5069049;28;20398;-78
2023/12/28 02:17:04;;;;;;;;;;;7.10;96.40;;;;;;5063609;28;19959;-79
2023/12/28 02:19:33;;;;;;;;;;;7.10;96.50;;;;;;5064582;28;19935;-77
2023/12/28 02:22:00;;;;;;;;;;;7.20;96.30;;;;;;5061328;28;19934;-76
2023/12/28 02:24:26;;;;;;;;;;;7.20;96.10;;;;;;5067587;28;20382;-79
2023/12/28 02:26:54;;;;;;;;;;;7.20;95.90;;;;;;5067330;28;19936;-77
2023/12/28 02:29:21;;;;;;;;;;;7.20;95.80;;;;;;5068368;28;19928;-76
2023/12/28 02:31:51;;;;;;;;;;;7.30;95.60;;;;;;5063445;28;19932;-75
2023/12/28 02:34:23;;;;;;;;;;;7.30;95.50;;;;;;5061659;28;19928;-76
2023/12/28 02:36:50;;;;;;;;;;;7.30;95.80;;;;;;5062886;28;19932;-76
2023/12/28 02:39:17;;;;;;;;;;;7.40;95.80;;;;;;5064942;28;20313;-76
2023/12/28 02:41:44;;;;;;;;;;;7.40;95.50;;;;;;5063749;28;19937;-76
2023/12/28 02:44:13;;;;;;;;;;;7.40;95.30;;;;;;5063241;28;19928;-77
2023/12/28 02:46:39;;;;;;;;;;;7.50;95.30;;;;;;5065111;28;19936;-79
2023/12/28 02:49:06;;;;;;;;;;;7.50;95.50;;;;;;5062308;28;19936;-79
2023/12/28 02:51:33;;;;;;;;;;;7.50;95.70;;;;;;5066467;28;19935;-80
2023/12/28 02:53:59;;;;;;;;;;;7.50;95.80;;;;;;5060634;28;20451;-78
2023/12/28 02:56:26;;;;;;;;;;;7.60;95.90;;;;;;5066350;28;20163;-78
2023/12/28 02:58:52;;;;;;;;;;;7.60;96.30;;;;;;5062945;28;19928;-78
2023/12/28 03:01:20;;;;;;;;;;;7.50;96.30;;;;;;5062103;28;19935;-77
2023/12/28 03:03:47;;;;;;;;;;;7.60;96.00;;;;;;5060358;28;19940;-75
2023/12/28 03:06:12;;;;;;;;;;;7.60;96.30;;;;;;5064918;28;19929;-77
2023/12/28 03:08:39;;;;;;;;;;;7.60;96.60;;;;;;5064209;28;19931;-77
2023/12/28 03:11:05;;;;;;;;;;;7.60;96.40;;;;;;5059304;28;19928;-77
2023/12/28 03:13:32;;;;;;;;;;;7.60;96.60;;;;;;5063988;28;19932;-78
2023/12/28 03:15:59;;;;;;;;;;;7.70;96.80;;;;;;5060691;28;19935;-80
2023/12/28 03:18:26;;;;;;;;;;;7.70;96.60;;;;;;5062391;28;19928;-79
2023/12/28 03:20:53;;;;;;;;;;;7.70;96.60;;;;;;5064311;28;19932;-78
2023/12/28 03:23:19;;;;;;;;;;;7.70;96.90;;;;;;5067650;28;19933;-79
2023/12/28 03:25:46;;;;;;;;;;;7.80;97.10;;;;;;5069958;28;19928;-78
2023/12/28 03:28:12;;;;;;;;;;;7.70;96.90;;;;;;5066781;28;19977;-75
2023/12/28 03:30:39;;;;;;;;;;;7.80;97.30;;;;;;5063777;28;20134;-79
2023/12/28 03:33:05;;;;;;;;;;;7.80;97.50;;;;;;5065493;28;20012;-77
2023/12/28 03:35:33;;;;;;;;;;;7.80;97.80;;;;;;5066131;28;19928;-78
2023/12/28 03:38:00;;;;;;;;;;;7.80;98.00;;;;;;5064707;28;20372;-76
2023/12/28 03:40:27;;;;;;;;;;;7.80;98.20;;;;;;5068270;28;19962;-76
2023/12/28 03:42:53;;;;;;;;;;;7.80;98.30;;;;;;5068872;28;19932;-78
2023/12/28 03:45:20;;;;;;;;;;;7.80;98.50;;;;;;5065330;28;19924;-77
2023/12/28 03:47:47;;;;;;;;;;;7.80;98.80;;;;;;5069997;28;20457;-77
2023/12/28 03:50:13;;;;;;;;;;;7.90;98.80;;;;;;5066022;28;19929;-76
2023/12/28 03:52:41;;;;;;;;;;;7.90;99.10;;;;;;5068398;28;19924;-77
2023/12/28 03:55:08;;;;;;;;;;;7.80;99.20;;;;;;5066720;28;19932;-78
2023/12/28 03:57:34;;;;;;;;;;;7.80;99.20;;;;;;5068546;28;19970;-79
2023/12/28 04:00:01;;;;;;;;;;;7.90;99.10;;;;;;5067981;28;19924;-78
2023/12/28 04:02:31;;;;;;;;;;;7.80;99.10;;;;;;5065602;28;20005;-77
2023/12/28 04:04:58;;;;;;;;;;;7.90;99.10;;;;;;5065121;28;19928;-76
2023/12/28 04:07:25;;;;;;;;;;;7.80;99.00;;;;;;5067949;28;20422;-77
2023/12/28 04:09:53;;;;;;;;;;;7.80;99.00;;;;;;5068186;28;19930;-75
2023/12/28 04:12:19;;;;;;;;;;;7.80;99.10;;;;;;5067689;28;20417;-78
2023/12/28 04:14:46;;;;;;;;;;;7.80;99.10;;;;;;5070061;28;20418;-78
2023/12/28 04:17:12;;;;;;;;;;;7.80;99.10;;;;;;5067207;28;19931;-77
2023/12/28 04:19:39;;;;;;;;;;;7.80;99.70;;;;;;5070109;28;19928;-78
2023/12/28 04:22:05;;;;;;;;;;;7.80;99.40;;;;;;5071891;28;19928;-78
2023/12/28 04:24:32;;;;;;;;;;;7.80;99.60;;;;;;5065138;28;19924;-79
2023/12/28 04:27:00;;;;;;;;;;;7.80;99.70;;;;;;5070874;28;19945;-77
2023/12/28 04:29:27;;;;;;;;;;;7.80;99.80;;;;;;5065147;28;19924;-77
2023/12/28 04:31:53;;;;;;;;;;;7.80;99.80;;;;;;5065257;28;19985;-76
2023/12/28 04:34:20;;;;;;;;;;;7.80;99.90;;;;;;5065063;28;19978;-77
2023/12/28 04:36:48;;;;;;;;;;;7.80;99.90;;;;;;5065587;28;20032;-77
2023/12/28 04:39:15;;;;;;;;;;;7.80;99.90;;;;;;5062441;28;19928;-76
2023/12/28 04:41:41;;;;;;;;;;;7.70;99.90;;;;;;5064540;28;19932;-78
2023/12/28 04:44:09;;;;;;;;;;;7.80;99.90;;;;;;5064200;28;19951;-77
2023/12/28 04:46:38;;;;;;;;;;;7.70;99.90;;;;;;5063906;28;19927;-77
2023/12/28 04:49:05;;;;;;;;;;;7.80;99.90;;;;;;5064554;28;19928;-77
2023/12/28 04:51:31;;;;;;;;;;;7.80;99.90;;;;;;5068308;28;19977;-77
2023/12/28 04:53:58;;;;;;;;;;;7.70;99.90;;;;;;5063997;28;19936;-76
2023/12/28 04:56:24;;;;;;;;;;;7.80;99.90;;;;;;5067904;28;19924;-77
2023/12/28 04:58:51;;;;;;;;;;;7.80;99.90;;;;;;5063144;28;19924;-76
2023/12/28 05:01:18;;;;;;;;;;;7.80;99.90;;;;;;5065194;28;19930;-76
2023/12/28 05:03:45;;;;;;;;;;;7.70;99.90;;;;;;5068087;28;20015;-77
2023/12/28 05:06:12;;;;;;;;;;;7.80;99.90;;;;;;5065272;28;19986;-77
2023/12/28 05:08:38;;;;;;;;;;;7.80;99.90;;;;;;5066862;28;19928;-79
2023/12/28 05:11:06;;;;;;;;;;;7.80;99.90;;;;;;5067717;28;19925;-77
2023/12/28 05:13:34;;;;;;;;;;;7.80;99.90;;;;;;5071643;28;19924;-77
2023/12/28 05:16:01;;;;;;;;;;;7.80;99.90;;;;;;5069495;28;19932;-78
2023/12/28 05:18:29;;;;;;;;;;;7.80;99.90;;;;;;5062975;28;19935;-77
2023/12/28 05:20:56;;;;;;;;;;;7.70;99.90;;;;;;5067397;28;19928;-77
2023/12/28 05:23:22;;;;;;;;;;;7.80;99.90;;;;;;5065140;28;20080;-77
2023/12/28 05:25:49;;;;;;;;;;;7.70;99.90;;;;;;5065522;28;20394;-78
2023/12/28 05:28:15;;;;;;;;;;;7.70;99.90;;;;;;5063647;28;19933;-78
2023/12/28 05:30:42;;;;;;;;;;;7.80;99.90;;;;;;5064886;28;20332;-77
2023/12/28 05:33:08;;;;;;;;;;;7.80;99.90;;;;;;5064076;28;19935;-78
2023/12/28 05:35:36;;;;;;;;;;;7.70;99.90;;;;;;5062462;28;20420;-78
2023/12/28 05:38:03;;;;;;;;;;;7.80;99.90;;;;;;5062491;28;19990;-77
2023/12/28 05:40:29;;;;;;;;;;;7.80;99.90;;;;;;5065617;28;19931;-77
2023/12/28 05:42:56;;;;;;;;;;;7.80;99.90;;;;;;5065944;28;19928;-77
2023/12/28 05:45:22;;;;;;;;;;;7.80;99.90;;;;;;5064873;28;20427;-77
2023/12/28 05:47:50;;;;;;;;;;;7.80;99.90;;;;;;5066275;28;19924;-76
2023/12/28 05:50:16;;;;;;;;;;;7.80;99.90;;;;;;5064928;28;19970;-77
2023/12/28 05:52:44;;;;;;;;;;;7.80;99.90;;;;;;5064999;28;19930;-76
2023/12/28 05:55:11;;;;;;;;;;;7.70;99.90;;;;;;5063075;28;19935;-77
2023/12/28 05:57:37;;;;;;;;;;;7.80;99.90;;;;;;5060929;28;19931;-77
2023/12/28 06:00:06;;;;;;;;;;;7.80;99.90;;;;;;5063517;28;19928;-77
2023/12/28 06:02:32;;;;;;;;;;;7.80;99.90;;;;;;5063165;28;20027;-76
2023/12/28 06:04:59;;;;;;;;;;;7.70;99.90;;;;;;5065585;28;19923;-77
2023/12/28 06:07:25;;;;;;;;;;;7.80;99.90;;;;;;5066189;28;19928;-78
2023/12/28 06:09:53;;;;;;;;;;;7.70;99.90;;;;;;5068711;28;20309;-77
2023/12/28 06:12:20;;;;;;;;;;;7.70;99.90;;;;;;5064233;28;20614;-78
2023/12/28 06:14:46;;;;;;;;;;;7.70;99.90;;;;;;5064594;28;19942;-77
2023/12/28 06:17:14;;;;;;;;;;;7.80;99.90;;;;;;5061152;28;19924;-76
2023/12/28 06:19:41;;;;;;;;;;;7.80;99.90;;;;;;5065744;28;19930;-77
2023/12/28 06:22:08;;;;;;;;;;;7.70;99.90;;;;;;5068412;28;19929;-78
2023/12/28 06:24:38;;;;;;;;;;;7.70;99.90;;;;;;5066172;28;19928;-77
2023/12/28 06:27:06;;;;;;;;;;;7.70;99.90;;;;;;5067294;28;19927;-78
2023/12/28 06:29:32;;;;;;;;;;;7.70;99.90;;;;;;5063306;28;19928;-77
2023/12/28 06:31:59;;;;;;;;;;;7.70;99.90;;;;;;5063216;28;19928;-76
2023/12/28 06:34:26;;;;;;;;;;;7.70;99.90;;;;;;5061951;28;19938;-77
2023/12/28 06:36:53;;;;;;;;;;;7.80;99.90;;;;;;5064654;28;20382;-77
2023/12/28 06:39:19;;;;;;;;;;;7.70;99.90;;;;;;5065584;28;19932;-76
2023/12/28 06:41:47;;;;;;;;;;;7.70;99.90;;;;;;5065643;28;19924;-77
2023/12/28 06:44:15;;;;;;;;;;;7.70;99.90;;;;;;5063189;28;20306;-75
2023/12/28 06:46:41;;;;;;;;;;;7.80;99.90;;;;;;5065508;28;19924;-77
2023/12/28 06:49:08;;;;;;;;;;;7.70;99.90;;;;;;5062620;28;19936;-77
2023/12/28 06:51:35;;;;;;;;;;;7.70;99.90;;;;;;5068570;28;19951;-77
2023/12/28 06:54:01;;;;;;;;;;;7.70;99.90;;;;;;5064057;28;19925;-77
2023/12/28 06:56:28;;;;;;;;;;;7.70;99.90;;;;;;5066622;28;20011;-76
2023/12/28 06:58:55;;;;;;;;;;;7.70;99.90;;;;;;5067313;28;19924;-76
2023/12/28 07:01:22;;;;;;;;;;;7.60;99.90;;;;;;5063572;28;19924;-76
2023/12/28 07:03:49;;;;;;;;;;;7.70;99.90;;;;;;5064545;28;19951;-76
2023/12/28 07:06:16;;;;;;;;;;;7.70;99.90;;;;;;5063413;28;19932;-77
2023/12/28 07:08:42;;;;;;;;;;;7.70;99.90;;;;;;5062617;28;19924;-76
2023/12/28 07:11:10;;;;;;;;;;;7.70;99.90;;;;;;5066295;28;19939;-77
2023/12/28 07:13:36;;;;;;;;;;;7.70;99.90;;;;;;5070971;28;20440;-77
2023/12/28 07:16:03;;;;;;;;;;;7.70;99.90;;;;;;5065854;28;19928;-77
2023/12/28 07:18:31;;;;;;;;;;;7.70;99.90;;;;;;5061517;28;19931;-77
2023/12/28 07:20:58;;;;;;;;;;;7.70;99.90;;;;;;5062387;28;19929;-77
2023/12/28 07:23:24;;;;;;;;;;;7.70;99.90;;;;;;5066670;28;19928;-77
2023/12/28 07:25:51;;;;;;;;;;;7.70;99.90;;;;;;5068602;28;20057;-77
2023/12/28 07:28:18;;;;;;;;;;;7.70;99.90;;;;;;5066321;28;20019;-75
2023/12/28 07:30:44;;;;;;;;;;;7.70;99.90;;;;;;5069807;28;20331;-76
2023/12/28 07:33:11;;;;;;;;;;;7.70;99.90;;;;;;5063282;28;19932;-76
2023/12/28 07:35:39;;;;;;;;;;;7.70;99.90;;;;;;5066610;28;19939;-76
2023/12/28 07:38:06;;;;;;;;;;;7.70;99.90;;;;;;5061006;28;19925;-77
2023/12/28 07:40:32;;;;;;;;;;;7.70;99.90;;;;;;5067289;28;19970;-77
2023/12/28 07:43:00;;;;;;;;;;;7.70;99.90;;;;;;5062408;28;20386;-76
2023/12/28 07:45:27;;;;;;;;;;;7.70;99.90;;;;;;5066725;28;25078;-76
2023/12/28 07:47:54;;;;;;;;;;;7.70;99.90;;;;;;5063023;28;19923;-77
2023/12/28 07:50:20;;;;;;;;;;;7.70;99.90;;;;;;5067730;28;19924;-76
2023/12/28 07:52:49;;;;;;;;;;;7.70;99.90;;;;;;5067231;28;19966;-75
2023/12/28 07:55:16;;;;;;;;;;;7.70;99.90;;;;;;5061697;28;19931;-75
2023/12/28 07:57:42;;;;;;;;;;;7.70;99.90;;;;;;5068366;28;19923;-76
2023/12/28 08:00:09;;;;;;;;;;;7.70;99.90;;;;;;5061785;28;19936;-75
2023/12/28 08:02:36;;;;;;;;;;;7.60;99.90;;;;;;5063039;28;19927;-77
2023/12/28 08:05:02;;;;;;;;;;;7.70;99.90;;;;;;5061566;28;19924;-76
2023/12/28 08:07:29;;;;;;;;;;;7.70;99.90;;;;;;5066067;28;19925;-77
2023/12/28 08:09:57;;;;;;;;;;;7.70;99.90;;;;;;5065619;28;19928;-76
2023/12/28 08:12:24;;;;;;;;;;;7.70;99.90;;;;;;5066306;28;19977;-76
2023/12/28 08:14:51;;;;;;;;;;;7.70;99.90;;;;;;5067736;28;20307;-76
2023/12/28 08:17:17;;;;;;;;;;;7.80;99.90;;;;;;5067877;28;19970;-76
2023/12/28 08:19:44;;;;;;;;;;;7.80;99.90;;;;;;5063873;28;19936;-74
2023/12/28 08:22:10;;;;;;;;;;;7.80;99.90;;;;;;5067475;28;19935;-75
2023/12/28 08:24:37;;;;;;;;;;;7.80;99.90;;;;;;5064968;28;19936;-76
2023/12/28 08:27:05;;;;;;;;;;;7.80;99.90;;;;;;5065433;28;19939;-76
2023/12/28 08:29:32;;;;;;;;;;;7.90;99.90;;;;;;5065656;28;20393;-77
2023/12/28 08:31:58;;;;;;;;;;;7.90;99.90;;;;;;5065110;28;19928;-75
2023/12/28 08:34:25;;;;;;;;;;;7.90;99.90;;;;;;5066584;28;19933;-76
2023/12/28 08:36:52;;;;;;;;;;;7.90;99.90;;;;;;5064201;28;19931;-75
2023/12/28 08:39:18;;;;;;;;;;;7.90;99.90;;;;;;5065546;28;20707;-75
2023/12/28 08:41:45;;;;;;;;;;;7.90;99.90;;;;;;5067976;28;19930;-76
2023/12/28 08:44:13;;;;;;;;;;;7.90;99.90;;;;;;5064934;28;19936;-75
2023/12/28 08:46:39;;;;;;;;;;;7.90;99.90;;;;;;5062440;28;20402;-77
2023/12/28 08:49:06;;;;;;;;;;;7.90;99.90;;;;;;5063747;28;20417;-76
2023/12/28 08:51:32;;;;;;;;;;;7.90;99.90;;;;;;5063811;28;19931;-76
2023/12/28 08:53:59;;;;;;;;;;;7.90;99.90;;;;;;5060107;28;19928;-76
2023/12/28 08:56:25;;;;;;;;;;;7.90;99.90;;;;;;5062266;28;19940;-77
2023/12/28 08:58:54;;;;;;;;;;;7.90;99.90;;;;;;5061476;28;19951;-75
2023/12/28 09:01:22;;;;;;;;;;;8.00;99.90;;;;;;5062386;28;19920;-74
2023/12/28 09:03:49;;;;;;;;;;;8.00;99.90;;;;;;5062622;28;19953;-76
2023/12/28 09:06:15;;;;;;;;;;;7.90;99.90;;;;;;5063026;28;20340;-75
2023/12/28 09:08:42;;;;;;;;;;;8.00;99.90;;;;;;5059344;28;19924;-77
2023/12/28 09:11:10;;;;;;;;;;;7.90;99.90;;;;;;5060099;28;19928;-76
2023/12/28 09:13:36;;;;;;;;;;;8.00;99.90;;;;;;5059590;28;19931;-77
2023/12/28 09:16:03;;;;;;;;;;;7.90;99.90;;;;;;5053033;28;19932;-76
2023/12/28 09:18:31;;;;;;;;;;;8.00;99.90;;;;;;5047196;28;19927;-76
2023/12/28 09:20:58;;;;;;;;;;;8.00;99.90;;;;;;5057519;28;20305;-80
2023/12/28 09:23:24;;;;;;;;;;;7.90;99.90;;;;;;5060733;28;20317;-75
2023/12/28 09:25:51;;;;;;;;;;;8.00;99.90;;;;;;5051457;28;20231;-76
2023/12/28 09:28:17;;;;;;;;;;;8.00;99.90;;;;;;5054532;28;19948;-76
2023/12/28 09:30:44;;;;;;;;;;;8.00;99.90;;;;;;5061403;28;19974;-77
2023/12/28 09:33:11;;;;;;;;;;;8.00;99.90;;;;;;5062888;28;19928;-77
2023/12/28 09:35:39;;;;;;;;;;;8.00;99.90;;;;;;5057828;28;19924;-76
2023/12/28 09:38:05;;;;;;;;;;;7.90;99.90;;;;;;5053875;28;19925;-78
2023/12/28 09:40:32;;;;;;;;;;;8.00;99.90;;;;;;5060412;28;19931;-75
2023/12/28 09:43:05;;;;;;;;;;;8.00;99.90;;;;;;5060585;28;19928;-76
2023/12/28 09:45:32;;;;;;;;;;;8.00;99.90;;;;;;5063369;28;20382;-75
2023/12/28 09:48:02;;;;;;;;;;;8.00;99.90;;;;;;5055951;28;20049;-75
2023/12/28 09:50:29;;;;;;;;;;;8.00;99.90;;;;;;5060722;28;20041;-75
2023/12/28 09:52:58;;;;;;;;;;;7.90;99.90;;;;;;5061510;28;19924;-75
2023/12/28 09:55:25;;;;;;;;;;;8.00;99.90;;;;;;5057007;28;20321;-75
2023/12/28 09:57:52;;;;;;;;;;;7.90;99.90;;;;;;5057251;28;20018;-76
2023/12/28 10:00:19;;;;;;;;;;;8.00;99.90;;;;;;5059373;28;20474;-74
2023/12/28 10:02:46;;;;;;;;;;;8.00;99.90;;;;;;5059405;28;19925;-75
2023/12/28 10:05:13;;;;;;;;;;;8.00;99.90;;;;;;5061258;28;19931;-75
2023/12/28 10:07:41;;;;;;;;;;;8.00;99.90;;;;;;5064547;28;19928;-75
2023/12/28 10:10:09;;;;;;;;;;;8.00;99.90;;;;;;5063253;28;19924;-75
2023/12/28 10:12:36;;;;;;;;;;;8.00;99.90;;;;;;5053548;28;20019;-74
2023/12/28 10:15:04;;;;;;;;;;;8.00;99.90;;;;;;5053897;28;19924;-74
2023/12/28 10:17:30;;;;;;;;;;;8.00;99.90;;;;;;5059032;28;19930;-74
2023/12/28 10:20:03;;;;;;;;;;;8.00;99.90;;;;;;5063330;28;19928;-73
2023/12/28 10:22:30;;;;;;;;;;;8.00;99.90;;;;;;5060391;28;20018;-73
2023/12/28 10:24:56;;;;;;;;;;;8.00;99.90;;;;;;5062878;28;19951;-74
2023/12/28 10:27:24;;;;;;;;;;;8.00;99.90;;;;;;5062978;28;20046;-73
2023/12/28 10:29:53;;;;;;;;;;;8.00;99.90;;;;;;5057539;28;19927;-74
2023/12/28 10:32:20;;;;;;;;;;;8.00;99.90;;;;;;5059174;28;19982;-73
2023/12/28 10:34:47;;;;;;;;;;;8.00;99.90;;;;;;5059230;28;20390;-73
2023/12/28 10:37:13;;;;;;;;;;;8.00;99.90;;;;;;5065026;28;19935;-73
2023/12/28 10:39:44;;;;;;;;;;;8.00;99.90;;;;;;5060482;28;19937;-74
2023/12/28 10:42:12;;;;;;;;;;;8.00;99.90;;;;;;5064742;28;19982;-74
2023/12/28 10:44:43;;;;;;;;;;;8.00;99.90;;;;;;5062385;28;19928;-75
2023/12/28 10:47:13;;;;;;;;;;;8.00;99.90;;;;;;5063351;28;19924;-74
2023/12/28 10:49:41;;;;;;;;;;;8.00;99.90;;;;;;5059763;28;19935;-75
2023/12/28 10:52:08;;;;;;;;;;;8.10;99.90;;;;;;5060601;28;20271;-73
2023/12/28 10:54:39;;;;;;;;;;;8.10;99.90;;;;;;5062016;28;19925;-74
2023/12/28 10:57:10;;;;;;;;;;;8.00;99.90;;;;;;5056362;28;19959;-73
2023/12/28 10:59:44;;;;;;;;;;;8.10;99.90;;;;;;5061241;28;19924;-74
2023/12/28 11:02:12;;;;;;;;;;;8.10;99.90;;;;;;5061256;28;19932;-73
2023/12/28 11:04:41;;;;;;;;;;;8.10;99.90;;;;;;5064788;28;19924;-73
2023/12/28 11:07:09;;;;;;;;;;;8.10;99.90;;;;;;5064562;28;20267;-75
2023/12/28 11:09:37;;;;;;;;;;;8.10;99.90;;;;;;5063464;28;19936;-73
2023/12/28 11:12:04;;;;;;;;;;;8.10;99.90;;;;;;5060490;28;21248;-74
2023/12/28 11:14:31;;;;;;;;;;;8.10;99.90;;;;;;5063551;28;19931;-73
2023/12/28 11:16:59;;;;;;;;;;;8.00;99.90;;;;;;5061728;28;19976;-74
2023/12/28 11:19:27;;;;;;;;;;;8.10;99.90;;;;;;5062722;28;19924;-75
2023/12/28 11:21:56;;;;;;;;;;;8.10;99.90;;;;;;5057823;28;19924;-74
2023/12/28 11:24:23;;;;;;;;;;;8.10;99.90;;;;;;5061042;28;19932;-75
2023/12/28 11:26:53;;;;;;;;;;;8.10;99.90;;;;;;5060725;28;19924;-74
2023/12/28 11:29:20;;;;;;;;;;;8.10;99.90;;;;;;5058420;28;19924;-74
2023/12/28 11:31:51;;;;;;;;;;;8.10;99.90;;;;;;5060022;28;20337;-74
2023/12/28 11:34:18;;;;;;;;;;;8.10;99.90;;;;;;5061110;28;19924;-74
2023/12/28 11:36:50;;;;;;;;;;;8.10;99.90;;;;;;5058396;28;19929;-75
2023/12/28 11:39:20;;;;;;;;;;;8.10;99.90;;;;;;5059154;28;19928;-74
2023/12/28 11:41:47;;;;;;;;;;;8.10;99.90;;;;;;5059209;28;19935;-75
2023/12/28 11:44:14;;;;;;;;;;;8.10;99.90;;;;;;5064342;28;19936;-75
2023/12/28 11:46:40;;;;;;;;;;;8.10;99.90;;;;;;5063750;28;20373;-75
2023/12/28 11:49:07;;;;;;;;;;;8.10;99.90;;;;;;5063361;28;20526;-76
2023/12/28 11:51:35;;;;;;;;;;;8.20;99.90;;;;;;5066797;28;20009;-74
2023/12/28 11:54:03;;;;;;;;;;;8.20;99.90;;;;;;5064540;28;19924;-77
2023/12/28 11:56:30;;;;;;;;;;;8.10;99.90;;;;;;5063421;28;19931;-76
2023/12/28 11:58:56;;;;;;;;;;;8.20;99.90;;;;;;5068556;28;19932;-78
2023/12/28 12:01:23;;;;;;;;;;;8.20;99.90;;;;;;5061762;28;19924;-72
2023/12/28 12:03:50;;;;;;;;;;;8.20;99.90;;;;;;5061976;28;19936;-72
2023/12/28 12:06:16;;;;;;;;;;;8.20;99.90;;;;;;5066882;28;19924;-73
2023/12/28 12:08:45;;;;;;;;;;;8.20;99.90;;;;;;5059352;28;20019;-72
2023/12/28 12:11:13;;;;;;;;;;;8.20;99.90;;;;;;5064452;28;19928;-73
2023/12/28 12:13:40;;;;;;;;;;;8.20;99.90;;;;;;5061379;28;19962;-72
2023/12/28 12:16:07;;;;;;;;;;;8.20;99.90;;;;;;5065912;28;19931;-72
2023/12/28 12:18:34;;;;;;;;;;;8.20;99.90;;;;;;5064749;28;20680;-73
2023/12/28 12:21:00;;;;;;;;;;;8.20;99.90;;;;;;5063600;28;19986;-71
2023/12/28 12:23:27;;;;;;;;;;;8.20;99.90;;;;;;5065691;28;19931;-73
2023/12/28 12:25:53;;;;;;;;;;;8.20;99.90;;;;;;5064541;28;19937;-72
2023/12/28 12:28:21;;;;;;;;;;;8.20;99.90;;;;;;5063955;28;19920;-72
2023/12/28 12:30:52;;;;;;;;;;;8.20;99.90;;;;;;5064117;28;19925;-73
2023/12/28 12:33:18;;;;;;;;;;;8.20;99.90;;;;;;5062799;28;19943;-72
2023/12/28 12:35:45;;;;;;;;;;;8.20;99.90;;;;;;5064157;28;19958;-72
2023/12/28 12:38:12;;;;;;;;;;;8.30;99.90;;;;;;5063868;28;19944;-72
2023/12/28 12:40:39;;;;;;;;;;;8.30;99.90;;;;;;5066971;28;20390;-71
2023/12/28 12:43:08;;;;;;;;;;;8.30;99.90;;;;;;5066293;28;19928;-72
2023/12/28 12:45:36;;;;;;;;;;;8.20;99.90;;;;;;5068981;28;19982;-73
2023/12/28 12:48:03;;;;;;;;;;;8.20;99.90;;;;;;5063047;28;19977;-73
2023/12/28 12:50:30;;;;;;;;;;;8.20;99.90;;;;;;5067255;28;19932;-73
2023/12/28 12:52:56;;;;;;;;;;;8.20;99.90;;;;;;5061549;28;19924;-71
2023/12/28 12:55:25;;;;;;;;;;;8.20;99.90;;;;;;5061171;28;19947;-71
2023/12/28 12:57:55;;;;;;;;;;;8.30;99.90;;;;;;5066750;28;19927;-72
2023/12/28 13:00:22;;;;;;;;;;;8.30;99.90;;;;;;5064717;28;19924;-73
2023/12/28 13:02:53;;;;;;;;;;;8.20;99.90;;;;;;5062712;28;19998;-72
2023/12/28 13:05:19;;;;;;;;;;;8.20;99.90;;;;;;5063770;28;19929;-74
2023/12/28 13:07:46;;;;;;;;;;;8.30;99.90;;;;;;5064227;28;19924;-72
2023/12/28 13:10:13;;;;;;;;;;;8.30;99.90;;;;;;5066615;28;19931;-73
2023/12/28 13:12:39;;;;;;;;;;;8.30;99.90;;;;;;5067069;28;19924;-73
2023/12/28 13:15:06;;;;;;;;;;;8.20;99.90;;;;;;5063688;28;19928;-73
2023/12/28 13:17:32;;;;;;;;;;;8.20;99.90;;;;;;5066612;28;19927;-73
2023/12/28 13:20:00;;;;;;;;;;;8.30;99.90;;;;;;5060420;28;19929;-72
2023/12/28 13:22:27;;;;;;;;;;;8.30;99.90;;;;;;5065736;28;19924;-73
2023/12/28 13:24:53;;;;;;;;;;;8.30;99.90;;;;;;5063043;28;19935;-71
2023/12/28 13:27:20;;;;;;;;;;;8.30;99.90;;;;;;5062851;28;19928;-72
2023/12/28 13:29:47;;;;;;;;;;;8.30;99.90;;;;;;5060830;28;19928;-73
2023/12/28 13:32:13;;;;;;;;;;;8.30;99.90;;;;;;5063342;28;20011;-73
2023/12/28 13:34:40;;;;;;;;;;;8.30;99.90;;;;;;5065617;28;19931;-72
2023/12/28 13:37:08;;;;;;;;;;;8.30;99.90;;;;;;5061870;28;19935;-73
2023/12/28 13:39:38;;;;;;;;;;;8.30;99.90;;;;;;5064843;28;19978;-72
2023/12/28 13:42:06;;;;;;;;;;;8.30;99.90;;;;;;5061104;28;19928;-73
2023/12/28 13:44:33;;;;;;;;;;;8.20;99.90;;;;;;5064998;28;19956;-72
2023/12/28 13:47:00;;;;;;;;;;;8.20;99.90;;;;;;5058752;28;19932;-72
2023/12/28 13:49:27;;;;;;;;;;;8.30;99.90;;;;;;5064627;28;19928;-73
2023/12/28 13:51:53;;;;;;;;;;;8.20;99.90;;;;;;5065422;28;20742;-73
2023/12/28 13:54:21;;;;;;;;;;;8.30;99.90;;;;;;5065253;28;19931;-73
2023/12/28 13:56:48;;;;;;;;;;;8.30;99.90;;;;;;5060169;28;20042;-72
2023/12/28 13:59:15;;;;;;;;;;;8.30;99.90;;;;;;5061698;28;20037;-74
2023/12/28 14:01:41;;;;;;;;;;;8.30;99.90;;;;;;5065865;28;19940;-72
2023/12/28 14:04:08;;;;;;;;;;;8.30;99.90;;;;;;5060048;28;19930;-73
2023/12/28 14:06:34;;;;;;;;;;;8.30;99.90;;;;;;5069543;28;19924;-74
2023/12/28 14:09:01;;;;;;;;;;;8.30;99.90;;;;;;5059878;28;19925;-74
2023/12/28 14:11:29;;;;;;;;;;;8.30;99.90;;;;;;5066993;28;19936;-74
2023/12/28 14:13:55;;;;;;;;;;;8.30;99.90;;;;;;5066697;28;19932;-73
2023/12/28 14:16:22;;;;;;;;;;;8.30;99.90;;;;;;5056890;28;19936;-74
2023/12/28 14:18:49;;;;;;;;;;;8.30;99.90;;;;;;5062143;28;19947;-73
2023/12/28 14:21:15;;;;;;;;;;;8.30;99.90;;;;;;5064574;28;20016;-74
2023/12/28 14:23:42;;;;;;;;;;;8.30;99.90;;;;;;5065306;28;20304;-72
2023/12/28 14:26:12;;;;;;;;;;;8.30;99.90;;;;;;5064507;28;19928;-74
2023/12/28 14:28:41;;;;;;;;;;;8.30;99.90;;;;;;5062989;28;20417;-74